Time;durP1;ratioP1;P1;durP2;ratioP2;P2;SDS_P1;SDS_P2;PMS_P1;PMS_P2;Temp;Humidity;BMP_temperature;BMP_pressure;BME280_temperature;BME280_humidity;BME280_pressure;Samples;Min_cycle;Max_cycle;Signal;HPM_P1;HPM_P2
2021/09/06 00:00:08;;;;;;;20.33;14.80;;;;;;;;;;5033994;28;20934;-77
2021/09/06 00:02:34;;;;;;;21.63;15.27;;;;;;;;;;5016756;28;20429;-79
2021/09/06 00:05:00;;;;;;;20.83;14.23;;;;;;;;;;5034565;28;20809;-79
2021/09/06 00:07:26;;;;;;;17.00;14.50;;;;;;;;;;5034454;28;20442;-78
2021/09/06 00:09:59;;;;;;;20.43;15.30;;;;;;;;;;5033933;28;20451;-78
2021/09/06 00:12:25;;;;;;;18.40;15.10;;;;;;;;;;5034316;28;20429;-78
2021/09/06 00:14:51;;;;;;;20.13;15.27;;;;;;;;;;5034476;28;20859;-80
2021/09/06 00:17:17;;;;;;;19.17;14.93;;;;;;;;;;5034827;28;20412;-77
2021/09/06 00:19:43;;;;;;;18.13;14.67;;;;;;;;;;5033795;28;20899;-80
2021/09/06 00:22:09;;;;;;;17.80;14.63;;;;;;;;;;5034237;28;20413;-77
2021/09/06 00:24:35;;;;;;;18.73;14.63;;;;;;;;;;5034232;28;20751;-79
2021/09/06 00:27:01;;;;;;;16.60;13.87;;;;;;;;;;5034160;28;20412;-78
2021/09/06 00:29:27;;;;;;;21.30;14.83;;;;;;;;;;5033698;28;20446;-79
2021/09/06 00:31:53;;;;;;;18.43;14.53;;;;;;;;;;5034065;28;20795;-78
2021/09/06 00:34:19;;;;;;;23.53;16.03;;;;;;;;;;5033881;28;20501;-78
2021/09/06 00:36:45;;;;;;;18.87;16.37;;;;;;;;;;5033980;28;20409;-78
2021/09/06 00:39:11;;;;;;;20.67;14.53;;;;;;;;;;5033576;28;20854;-79
2021/09/06 00:41:37;;;;;;;19.20;14.93;;;;;;;;;;5034112;28;20452;-78
2021/09/06 00:44:03;;;;;;;19.20;15.47;;;;;;;;;;5033800;28;20474;-80
2021/09/06 00:46:29;;;;;;;20.87;13.43;;;;;;;;;;5033672;28;20461;-77
2021/09/06 00:48:55;;;;;;;17.10;14.03;;;;;;;;;;5033447;28;20461;-77
2021/09/06 00:51:21;;;;;;;21.77;14.33;;;;;;;;;;5033819;28;20375;-78
2021/09/06 00:53:47;;;;;;;20.43;15.10;;;;;;;;;;5016163;28;20413;-76
2021/09/06 00:56:13;;;;;;;17.97;14.50;;;;;;;;;;5033539;28;20402;-77
2021/09/06 00:58:39;;;;;;;18.10;14.97;;;;;;;;;;5033037;28;20428;-77
2021/09/06 01:01:05;;;;;;;19.80;14.40;;;;;;;;;;5033418;28;20403;-77
2021/09/06 01:03:31;;;;;;;19.33;15.30;;;;;;;;;;5015610;28;20489;-78
2021/09/06 01:05:57;;;;;;;22.57;14.23;;;;;;;;;;5015973;28;20383;-79
2021/09/06 01:08:23;;;;;;;21.30;14.47;;;;;;;;;;5033233;28;20860;-79
2021/09/06 01:10:49;;;;;;;16.70;13.70;;;;;;;;;;5032771;28;20483;-78
2021/09/06 01:13:15;;;;;;;21.33;15.03;;;;;;;;;;5015595;28;20868;-79
2021/09/06 01:15:41;;;;;;;20.67;15.63;;;;;;;;;;5015678;28;20424;-79
2021/09/06 01:18:07;;;;;;;17.77;13.93;;;;;;;;;;5033350;28;20384;-78
2021/09/06 01:20:34;;;;;;;21.43;15.53;;;;;;;;;;5032796;28;20887;-79
2021/09/06 01:22:59;;;;;;;22.03;15.60;;;;;;;;;;5033160;28;20418;-78
2021/09/06 01:25:25;;;;;;;19.23;15.63;;;;;;;;;;5033084;28;20417;-78
2021/09/06 01:27:51;;;;;;;18.30;15.07;;;;;;;;;;5033164;28;20388;-78
2021/09/06 01:30:17;;;;;;;20.10;15.80;;;;;;;;;;5032975;28;20465;-78
2021/09/06 01:32:43;;;;;;;18.73;15.47;;;;;;;;;;5033248;28;20505;-77
2021/09/06 01:35:10;;;;;;;20.07;15.33;;;;;;;;;;5015720;28;20506;-77
2021/09/06 01:37:37;;;;;;;22.20;14.87;;;;;;;;;;5015403;28;20435;-79
2021/09/06 01:40:03;;;;;;;18.90;14.40;;;;;;;;;;5032561;28;20435;-79
2021/09/06 01:42:29;;;;;;;19.87;14.40;;;;;;;;;;5033141;28;20922;-79
2021/09/06 01:44:55;;;;;;;19.30;15.80;;;;;;;;;;5032958;28;20470;-79
2021/09/06 01:47:21;;;;;;;20.87;15.07;;;;;;;;;;5032995;28;20435;-79
2021/09/06 01:49:47;;;;;;;16.43;13.77;;;;;;;;;;5032529;28;20471;-79
2021/09/06 01:52:13;;;;;;;23.17;14.87;;;;;;;;;;5033366;28;20456;-79
2021/09/06 01:54:39;;;;;;;19.90;14.87;;;;;;;;;;5034487;28;20437;-78
2021/09/06 01:57:05;;;;;;;20.63;14.93;;;;;;;;;;5034137;28;20839;-78
2021/09/06 01:59:31;;;;;;;21.10;14.83;;;;;;;;;;5032464;28;20442;-77
2021/09/06 02:01:57;;;;;;;22.37;15.97;;;;;;;;;;5032980;28;20786;-78
2021/09/06 02:04:23;;;;;;;22.60;14.70;;;;;;;;;;5032809;28;20411;-77
2021/09/06 02:06:49;;;;;;;19.30;15.63;;;;;;;;;;5032769;28;20864;-77
2021/09/06 02:09:15;;;;;;;21.40;15.07;;;;;;;;;;5032252;28;20537;-78
2021/09/06 02:11:41;;;;;;;19.50;15.50;;;;;;;;;;5032766;28;20387;-78
2021/09/06 02:14:07;;;;;;;22.57;15.97;;;;;;;;;;5033790;28;20432;-77
2021/09/06 02:16:33;;;;;;;20.53;16.53;;;;;;;;;;5036572;28;20459;-77
2021/09/06 02:18:59;;;;;;;20.40;14.83;;;;;;;;;;5018371;28;20402;-79
2021/09/06 02:21:25;;;;;;;19.07;15.63;;;;;;;;;;5036492;28;20395;-79
2021/09/06 02:23:51;;;;;;;20.43;15.17;;;;;;;;;;5036559;28;20402;-78
2021/09/06 02:26:17;;;;;;;20.87;16.30;;;;;;;;;;5036572;28;20470;-78
2021/09/06 02:28:44;;;;;;;22.43;15.60;;;;;;;;;;5036127;28;20543;-78
2021/09/06 02:31:10;;;;;;;20.53;16.00;;;;;;;;;;5036281;28;20425;-77
2021/09/06 02:33:38;;;;;;;25.20;18.30;;;;;;;;;;5018446;28;20759;-78
2021/09/06 02:36:04;;;;;;;23.97;16.43;;;;;;;;;;5018535;28;20398;-79
2021/09/06 02:38:30;;;;;;;24.07;16.50;;;;;;;;;;5036100;28;20456;-78
2021/09/06 02:40:56;;;;;;;28.90;15.90;;;;;;;;;;5035899;28;20449;-78
2021/09/06 02:43:22;;;;;;;24.07;17.17;;;;;;;;;;5035955;28;20979;-79
2021/09/06 02:45:48;;;;;;;20.43;16.23;;;;;;;;;;5036310;28;20387;-78
2021/09/06 02:48:14;;;;;;;31.43;17.40;;;;;;;;;;5035927;28;20399;-78
2021/09/06 02:50:40;;;;;;;23.70;17.07;;;;;;;;;;5035555;28;21020;-78
2021/09/06 02:53:06;;;;;;;22.50;16.33;;;;;;;;;;5035949;28;20455;-78
2021/09/06 02:55:32;;;;;;;26.03;17.53;;;;;;;;;;5035789;28;20947;-78
2021/09/06 02:57:58;;;;;;;23.27;17.33;;;;;;;;;;5018311;28;20405;-78
2021/09/06 03:00:25;;;;;;;23.07;17.07;;;;;;;;;;5035352;28;20441;-77
2021/09/06 03:02:51;;;;;;;23.13;16.23;;;;;;;;;;5035748;28;20395;-79
2021/09/06 03:05:17;;;;;;;18.20;14.93;;;;;;;;;;5035528;28;20409;-78
2021/09/06 03:07:43;;;;;;;21.97;17.47;;;;;;;;;;5035474;28;20394;-78
2021/09/06 03:10:10;;;;;;;23.17;17.80;;;;;;;;;;5035151;28;20504;-78
2021/09/06 03:12:36;;;;;;;22.70;17.10;;;;;;;;;;5035425;28;20409;-79
2021/09/06 03:15:02;;;;;;;22.60;15.83;;;;;;;;;;5035428;28;20406;-76
2021/09/06 03:17:28;;;;;;;21.70;16.33;;;;;;;;;;5035333;28;20423;-79
2021/09/06 03:19:54;;;;;;;21.90;17.77;;;;;;;;;;5035098;28;20447;-79
2021/09/06 03:22:20;;;;;;;22.93;17.23;;;;;;;;;;5035378;28;20414;-79
2021/09/06 03:24:46;;;;;;;23.07;17.23;;;;;;;;;;5035120;28;20898;-78
2021/09/06 03:27:13;;;;;;;22.03;16.40;;;;;;;;;;5035388;28;20420;-76
2021/09/06 03:29:39;;;;;;;20.63;17.17;;;;;;;;;;5034805;28;20478;-79
2021/09/06 03:32:05;;;;;;;23.00;17.10;;;;;;;;;;5035273;28;20419;-78
2021/09/06 03:34:31;;;;;;;27.63;18.13;;;;;;;;;;5017514;28;20398;-76
2021/09/06 03:36:57;;;;;;;25.87;19.40;;;;;;;;;;5035292;28;20421;-78
2021/09/06 03:39:23;;;;;;;24.20;17.67;;;;;;;;;;5034524;28;20467;-78
2021/09/06 03:41:49;;;;;;;24.60;17.90;;;;;;;;;;5035089;28;20410;-78
2021/09/06 03:44:15;;;;;;;25.80;19.33;;;;;;;;;;5035104;28;20424;-78
2021/09/06 03:46:41;;;;;;;26.40;19.00;;;;;;;;;;5035053;28;20391;-76
2021/09/06 03:49:07;;;;;;;24.00;17.40;;;;;;;;;;5034438;28;20447;-79
2021/09/06 03:51:33;;;;;;;26.60;19.00;;;;;;;;;;5034849;28;20409;-79
2021/09/06 03:53:59;;;;;;;26.83;18.80;;;;;;;;;;5034722;28;20408;-76
2021/09/06 03:56:25;;;;;;;22.83;17.30;;;;;;;;;;5034719;28;20736;-76
2021/09/06 03:58:51;;;;;;;23.23;16.80;;;;;;;;;;5016660;28;20394;-78
2021/09/06 04:01:17;;;;;;;20.93;16.53;;;;;;;;;;5034689;28;20872;-77
2021/09/06 04:03:43;;;;;;;25.67;18.07;;;;;;;;;;5034589;28;20437;-77
2021/09/06 04:06:09;;;;;;;24.67;16.90;;;;;;;;;;5034454;28;20392;-76
2021/09/06 04:08:35;;;;;;;31.27;18.07;;;;;;;;;;5034116;28;20409;-76
2021/09/06 04:11:01;;;;;;;25.00;17.37;;;;;;;;;;5034673;28;20458;-77
2021/09/06 04:13:27;;;;;;;22.23;17.37;;;;;;;;;;5035342;28;20815;-76
2021/09/06 04:15:53;;;;;;;24.03;17.37;;;;;;;;;;5016747;28;20478;-77
2021/09/06 04:18:19;;;;;;;25.37;17.40;;;;;;;;;;5034286;28;20894;-76
2021/09/06 04:20:45;;;;;;;22.40;16.77;;;;;;;;;;5033899;28;20429;-78
2021/09/06 04:23:11;;;;;;;27.27;18.27;;;;;;;;;;5034199;28;20421;-79
2021/09/06 04:25:37;;;;;;;25.33;17.80;;;;;;;;;;5016424;28;20471;-78
2021/09/06 04:28:03;;;;;;;23.07;17.77;;;;;;;;;;5034305;28;20413;-78
2021/09/06 04:30:29;;;;;;;24.50;17.63;;;;;;;;;;5033529;28;20447;-78
2021/09/06 04:32:55;;;;;;;28.70;19.20;;;;;;;;;;5034066;28;20454;-78
2021/09/06 04:35:21;;;;;;;23.40;17.33;;;;;;;;;;5033781;28;20394;-76
2021/09/06 04:37:47;;;;;;;24.53;17.40;;;;;;;;;;5033297;28;20755;-77
2021/09/06 04:40:13;;;;;;;27.90;19.27;;;;;;;;;;5033287;28;20555;-78
2021/09/06 04:42:39;;;;;;;29.33;18.77;;;;;;;;;;5033783;28;20417;-78
2021/09/06 04:45:07;;;;;;;28.13;20.03;;;;;;;;;;5033851;28;20506;-79
2021/09/06 04:47:33;;;;;;;26.47;18.20;;;;;;;;;;5033759;28;20825;-76
2021/09/06 04:49:59;;;;;;;25.13;17.37;;;;;;;;;;5033380;28;20465;-79
2021/09/06 04:52:25;;;;;;;24.33;18.37;;;;;;;;;;5033571;28;20770;-77
2021/09/06 04:54:51;;;;;;;27.30;19.77;;;;;;;;;;5033827;28;20416;-78
2021/09/06 04:57:17;;;;;;;28.50;20.63;;;;;;;;;;5033822;28;20412;-76
2021/09/06 04:59:43;;;;;;;27.00;19.33;;;;;;;;;;5033019;28;20797;-78
2021/09/06 05:02:09;;;;;;;30.17;20.97;;;;;;;;;;5033535;28;20380;-79
2021/09/06 05:04:35;;;;;;;32.40;20.37;;;;;;;;;;5033242;28;20421;-78
2021/09/06 05:07:01;;;;;;;24.80;18.47;;;;;;;;;;5033603;28;20475;-76
2021/09/06 05:09:27;;;;;;;32.00;20.17;;;;;;;;;;5015303;28;20455;-77
2021/09/06 05:11:53;;;;;;;28.07;19.90;;;;;;;;;;5033330;28;20458;-79
2021/09/06 05:14:19;;;;;;;29.97;20.80;;;;;;;;;;5033288;28;20982;-79
2021/09/06 05:16:45;;;;;;;27.47;19.40;;;;;;;;;;5033166;28;20409;-77
2021/09/06 05:19:11;;;;;;;27.10;19.77;;;;;;;;;;5032677;28;20432;-77
2021/09/06 05:21:37;;;;;;;27.40;18.40;;;;;;;;;;5033366;28;20462;-75
2021/09/06 05:24:06;;;;;;;24.40;18.40;;;;;;;;;;5033436;28;20889;-76
2021/09/06 05:26:33;;;;;;;27.67;19.77;;;;;;;;;;5033618;28;20506;-78
2021/09/06 05:28:59;;;;;;;29.57;19.30;;;;;;;;;;5033092;28;20494;-75
2021/09/06 05:31:25;;;;;;;32.67;21.27;;;;;;;;;;5033274;28;20837;-77
2021/09/06 05:33:51;;;;;;;30.07;20.07;;;;;;;;;;5033240;28;20421;-78
2021/09/06 05:36:17;;;;;;;28.00;20.07;;;;;;;;;;5032922;28;20409;-78
2021/09/06 05:38:44;;;;;;;30.50;20.27;;;;;;;;;;5032572;28;20388;-77
2021/09/06 05:41:10;;;;;;;29.50;21.10;;;;;;;;;;5032725;28;20412;-78
2021/09/06 05:43:36;;;;;;;30.60;19.70;;;;;;;;;;5033288;28;20395;-77
2021/09/06 05:46:02;;;;;;;30.40;20.07;;;;;;;;;;5033227;28;20405;-80
2021/09/06 05:48:28;;;;;;;26.20;19.67;;;;;;;;;;5034704;28;20396;-79
2021/09/06 05:50:54;;;;;;;30.00;19.63;;;;;;;;;;5036864;28;20420;-75
2021/09/06 05:53:20;;;;;;;25.03;19.20;;;;;;;;;;5037305;28;20391;-77
2021/09/06 05:55:46;;;;;;;27.80;18.87;;;;;;;;;;5019339;28;20884;-76
2021/09/06 05:58:12;;;;;;;28.33;18.80;;;;;;;;;;5037220;28;20443;-78
2021/09/06 06:00:38;;;;;;;24.23;18.37;;;;;;;;;;5036511;28;20856;-79
2021/09/06 06:03:04;;;;;;;26.80;19.87;;;;;;;;;;5036964;28;20467;-77
2021/09/06 06:05:30;;;;;;;27.03;19.87;;;;;;;;;;5037114;28;20399;-78
2021/09/06 06:07:56;;;;;;;28.03;20.23;;;;;;;;;;5037054;28;20421;-78
2021/09/06 06:10:22;;;;;;;26.07;20.20;;;;;;;;;;5036526;28;20464;-77
2021/09/06 06:12:48;;;;;;;31.90;22.10;;;;;;;;;;5036834;28;20417;-78
2021/09/06 06:15:14;;;;;;;34.00;20.80;;;;;;;;;;5036649;28;20404;-77
2021/09/06 06:17:42;;;;;;;34.13;23.33;;;;;;;;;;5036661;28;20844;-78
2021/09/06 06:20:09;;;;;;;34.07;23.40;;;;;;;;;;5036272;28;20418;-79
2021/09/06 06:22:35;;;;;;;31.53;22.30;;;;;;;;;;5036409;28;20495;-78
2021/09/06 06:25:01;;;;;;;30.67;22.10;;;;;;;;;;5036314;28;20829;-78
2021/09/06 06:27:27;;;;;;;37.90;23.60;;;;;;;;;;5036335;28;20395;-77
2021/09/06 06:29:53;;;;;;;30.00;20.87;;;;;;;;;;5036142;28;20464;-79
2021/09/06 06:32:19;;;;;;;28.63;22.53;;;;;;;;;;5036651;28;20689;-78
2021/09/06 06:34:45;;;;;;;24.73;19.43;;;;;;;;;;5019071;28;20474;-78
2021/09/06 06:37:11;;;;;;;32.03;22.17;;;;;;;;;;5018395;28;20884;-78
2021/09/06 06:39:37;;;;;;;24.53;19.33;;;;;;;;;;5035830;28;20434;-78
2021/09/06 06:42:03;;;;;;;28.73;22.17;;;;;;;;;;5036349;28;20431;-78
2021/09/06 06:44:29;;;;;;;29.30;22.27;;;;;;;;;;5036545;28;20416;-77
2021/09/06 06:46:55;;;;;;;30.57;22.57;;;;;;;;;;5036017;28;20416;-79
2021/09/06 06:49:21;;;;;;;26.93;21.97;;;;;;;;;;5035533;28;20978;-78
2021/09/06 06:51:47;;;;;;;30.83;22.50;;;;;;;;;;5036108;28;20384;-77
2021/09/06 06:54:13;;;;;;;36.33;21.70;;;;;;;;;;5036026;28;20375;-78
2021/09/06 06:56:39;;;;;;;27.80;21.20;;;;;;;;;;5035987;28;20388;-79
2021/09/06 06:59:04;;;;;;;30.17;20.30;;;;;;;;;;5035331;28;20470;-80
2021/09/06 07:01:30;;;;;;;30.77;23.23;;;;;;;;;;5035297;28;20391;-78
2021/09/06 07:03:56;;;;;;;28.30;23.50;;;;;;;;;;5035947;28;20749;-79
2021/09/06 07:06:23;;;;;;;32.10;22.17;;;;;;;;;;5035853;28;20438;-76
2021/09/06 07:08:49;;;;;;;28.97;21.40;;;;;;;;;;5035234;28;20554;-78
2021/09/06 07:11:15;;;;;;;27.87;22.20;;;;;;;;;;5035376;28;20872;-78
2021/09/06 07:13:41;;;;;;;25.60;20.30;;;;;;;;;;5035642;28;20410;-77
2021/09/06 07:16:08;;;;;;;26.13;19.80;;;;;;;;;;5035511;28;20413;-77
2021/09/06 07:18:34;;;;;;;26.57;20.17;;;;;;;;;;5035113;28;20417;-76
2021/09/06 07:21:00;;;;;;;30.23;21.70;;;;;;;;;;5035278;28;20408;-78
2021/09/06 07:23:25;;;;;;;25.87;20.93;;;;;;;;;;5035111;28;20419;-78
2021/09/06 07:25:51;;;;;;;29.17;20.60;;;;;;;;;;5035452;28;20804;-79
2021/09/06 07:28:17;;;;;;;27.93;20.40;;;;;;;;;;5035636;28;20384;-78
2021/09/06 07:30:43;;;;;;;28.07;21.47;;;;;;;;;;5035021;28;20479;-78
2021/09/06 07:33:09;;;;;;;26.60;20.70;;;;;;;;;;5035228;28;20892;-79
2021/09/06 07:35:35;;;;;;;30.30;21.13;;;;;;;;;;5035223;28;20797;-78
2021/09/06 07:38:01;;;;;;;31.33;19.87;;;;;;;;;;5035315;28;20462;-79
2021/09/06 07:40:27;;;;;;;25.87;20.93;;;;;;;;;;5034670;28;20995;-79
2021/09/06 07:42:53;;;;;;;30.97;21.90;;;;;;;;;;5035247;28;20460;-78
2021/09/06 07:45:19;;;;;;;34.43;22.83;;;;;;;;;;5035310;28;20738;-79
2021/09/06 07:47:45;;;;;;;25.63;19.73;;;;;;;;;;5034961;28;20492;-76
2021/09/06 07:50:12;;;;;;;23.13;19.40;;;;;;;;;;5034604;28;20602;-79
2021/09/06 07:52:39;;;;;;;22.40;18.83;;;;;;;;;;5035202;28;20380;-77
2021/09/06 07:55:05;;;;;;;29.93;21.13;;;;;;;;;;5034946;28;20384;-77
2021/09/06 07:57:32;;;;;;;36.73;23.60;;;;;;;;;;5034781;28;20392;-79
2021/09/06 07:59:58;;;;;;;31.00;24.17;;;;;;;;;;5034247;28;20440;-77
2021/09/06 08:02:24;;;;;;;34.03;25.20;;;;;;;;;;5034734;28;20856;-76
2021/09/06 08:04:49;;;;;;;39.33;26.30;;;;;;;;;;5034730;28;20387;-78
2021/09/06 08:07:16;;;;;;;36.50;27.90;;;;;;;;;;5034486;28;20399;-79
2021/09/06 08:09:42;;;;;;;37.87;25.37;;;;;;;;;;5033954;28;20493;-77
2021/09/06 08:12:08;;;;;;;34.70;25.53;;;;;;;;;;5033301;28;20789;-78
2021/09/06 08:14:34;;;;;;;36.97;25.13;;;;;;;;;;5034224;28;20438;-78
2021/09/06 08:17:00;;;;;;;32.50;25.83;;;;;;;;;;5034247;28;20814;-76
2021/09/06 08:19:28;;;;;;;34.83;26.60;;;;;;;;;;5033766;28;20814;-79
2021/09/06 08:21:56;;;;;;;40.57;26.57;;;;;;;;;;5033997;28;20496;-77
2021/09/06 08:24:23;;;;;;;35.83;26.90;;;;;;;;;;5034231;28;20936;-77
2021/09/06 08:26:49;;;;;;;37.43;27.90;;;;;;;;;;5016754;28;20419;-79
2021/09/06 08:29:15;;;;;;;37.80;26.90;;;;;;;;;;5033825;28;20443;-78
2021/09/06 08:31:41;;;;;;;40.70;29.30;;;;;;;;;;5034155;28;20413;-77
2021/09/06 08:34:07;;;;;;;36.90;26.37;;;;;;;;;;5034078;28;20925;-76
2021/09/06 08:36:33;;;;;;;30.60;23.33;;;;;;;;;;5034109;28;20409;-78
2021/09/06 08:38:59;;;;;;;31.93;23.80;;;;;;;;;;5033527;28;20457;-78
2021/09/06 08:41:25;;;;;;;31.23;21.50;;;;;;;;;;5034255;28;20492;-76
2021/09/06 08:43:51;;;;;;;26.30;21.30;;;;;;;;;;5016606;28;21040;-78
2021/09/06 08:46:21;;;;;;;24.60;18.80;;;;;;;;;;5034176;28;20553;-79
2021/09/06 08:48:47;;;;;;;27.40;20.40;;;;;;;;;;5033410;28;20530;-77
2021/09/06 08:51:13;;;;;;;25.43;19.17;;;;;;;;;;5033824;28;20816;-79
2021/09/06 08:53:39;;;;;;;26.73;21.07;;;;;;;;;;5033802;28;20800;-79
2021/09/06 08:56:05;;;;;;;23.53;18.60;;;;;;;;;;5033609;28;20409;-79
2021/09/06 08:58:31;;;;;;;20.90;18.37;;;;;;;;;;5033550;28;20831;-78
2021/09/06 09:00:58;;;;;;;21.80;18.30;;;;;;;;;;5033672;28;20440;-78
2021/09/06 09:03:24;;;;;;;26.10;20.00;;;;;;;;;;5033698;28;20459;-78
2021/09/06 09:06:03;;;;;;;23.97;19.33;;;;;;;;;;5033574;28;20496;-80
2021/09/06 09:08:29;;;;;;;19.50;16.80;;;;;;;;;;5033496;28;20920;-76
2021/09/06 09:11:00;;;;;;;21.13;17.63;;;;;;;;;;5033176;28;20477;-78
2021/09/06 09:13:34;;;;;;;20.20;16.80;;;;;;;;;;5033407;28;20405;-76
2021/09/06 09:16:00;;;;;;;23.30;16.63;;;;;;;;;;5033377;28;20404;-79
2021/09/06 09:18:28;;;;;;;25.43;17.53;;;;;;;;;;5033211;28;20806;-77
2021/09/06 09:20:58;;;;;;;25.00;16.40;;;;;;;;;;5033037;28;20432;-76
2021/09/06 09:23:34;;;;;;;21.23;17.00;;;;;;;;;;5032958;28;20432;-78
2021/09/06 09:26:00;;;;;;;27.70;19.07;;;;;;;;;;5033464;28;20416;-79
2021/09/06 09:28:30;;;;;;;21.07;17.40;;;;;;;;;;5032979;28;20499;-78
2021/09/06 09:31:06;;;;;;;21.93;17.87;;;;;;;;;;5032981;28;20486;-80
2021/09/06 09:33:37;;;;;;;24.67;17.73;;;;;;;;;;5033404;28;20412;-80
2021/09/06 09:36:03;;;;;;;20.27;16.37;;;;;;;;;;5033142;28;20492;-78
2021/09/06 09:38:37;;;;;;;20.50;16.37;;;;;;;;;;5033108;28;20413;-79
2021/09/06 09:41:10;;;;;;;21.67;17.17;;;;;;;;;;5033272;28;21059;-79
2021/09/06 09:43:36;;;;;;;23.13;17.67;;;;;;;;;;5033224;28;20454;-78
2021/09/06 09:46:03;;;;;;;21.30;17.10;;;;;;;;;;5033171;28;20439;-77
2021/09/06 09:48:29;;;;;;;23.37;17.37;;;;;;;;;;5032758;28;20880;-79
2021/09/06 09:50:55;;;;;;;18.33;14.63;;;;;;;;;;5033068;28;20495;-80
2021/09/06 09:53:22;;;;;;;20.83;16.03;;;;;;;;;;5033326;28;20417;-80
2021/09/06 09:55:48;;;;;;;26.67;16.53;;;;;;;;;;5033046;28;20420;-77
2021/09/06 09:58:16;;;;;;;18.27;14.50;;;;;;;;;;5033138;28;20412;-78
2021/09/06 10:00:43;;;;;;;19.43;14.37;;;;;;;;;;5032568;28;20463;-79
2021/09/06 10:03:09;;;;;;;18.27;16.00;;;;;;;;;;5033111;28;20420;-78
2021/09/06 10:05:36;;;;;;;19.50;15.20;;;;;;;;;;5033079;28;20943;-78
2021/09/06 10:08:13;;;;;;;16.93;15.13;;;;;;;;;;5015284;28;20985;-77
2021/09/06 10:10:40;;;;;;;16.23;14.50;;;;;;;;;;5032336;28;20471;-76
2021/09/06 10:13:06;;;;;;;17.73;14.63;;;;;;;;;;5032785;28;20893;-80
2021/09/06 10:15:35;;;;;;;17.63;15.33;;;;;;;;;;5032801;28;20400;-79
2021/09/06 10:18:02;;;;;;;16.30;14.57;;;;;;;;;;5032790;28;20451;-78
2021/09/06 10:20:28;;;;;;;17.57;14.73;;;;;;;;;;5032270;28;20917;-78
2021/09/06 10:23:01;;;;;;;19.67;16.07;;;;;;;;;;5014904;28;20432;-79
2021/09/06 10:25:29;;;;;;;17.60;15.13;;;;;;;;;;5032684;28;20416;-80
2021/09/06 10:27:58;;;;;;;20.03;16.53;;;;;;;;;;5032688;28;20412;-79
2021/09/06 10:30:40;;;;;;;19.50;15.70;;;;;;;;;;5032362;28;20457;-79
2021/09/06 10:33:07;;;;;;;19.37;15.50;;;;;;;;;;5032725;28;20401;-76
2021/09/06 10:35:34;;;;;;;16.80;15.10;;;;;;;;;;5034188;28;20401;-78
2021/09/06 10:38:04;;;;;;;19.67;15.30;;;;;;;;;;5036382;28;20405;-79
2021/09/06 10:40:32;;;;;;;14.70;13.10;;;;;;;;;;5036067;28;20441;-78
2021/09/06 10:45:55;;;;;;;20.07;16.30;;;;;;;;;;5036353;28;20407;-75
2021/09/06 10:48:22;;;;;;;16.90;14.13;;;;;;;;;;5036276;28;20881;-75
2021/09/06 10:50:48;;;;;;;18.67;16.67;;;;;;;;;;5035642;28;20901;-76
2021/09/06 10:53:16;;;;;;;19.90;17.83;;;;;;;;;;5036121;28;20457;-78
2021/09/06 10:55:45;;;;;;;19.53;17.50;;;;;;;;;;5036073;28;20738;-79
2021/09/06 10:58:11;;;;;;;17.33;15.53;;;;;;;;;;5035907;28;20455;-77
2021/09/06 11:00:37;;;;;;;16.80;15.00;;;;;;;;;;5035407;28;20966;-76
2021/09/06 11:03:06;;;;;;;18.10;15.43;;;;;;;;;;5017927;28;20461;-77
2021/09/06 11:05:32;;;;;;;17.43;15.50;;;;;;;;;;5035858;28;20416;-77
2021/09/06 11:08:05;;;;;;;15.77;13.80;;;;;;;;;;5035949;28;20417;-76
2021/09/06 11:10:31;;;;;;;17.93;14.60;;;;;;;;;;5035189;28;20608;-77
2021/09/06 11:12:59;;;;;;;15.63;14.10;;;;;;;;;;5035459;28;20442;-77
2021/09/06 11:15:26;;;;;;;16.17;14.57;;;;;;;;;;5035663;28;20440;-78
2021/09/06 11:18:03;;;;;;;14.13;12.77;;;;;;;;;;5035561;28;20409;-78
2021/09/06 11:20:31;;;;;;;14.90;13.50;;;;;;;;;;5035058;28;20437;-75
2021/09/06 11:23:00;;;;;;;18.47;15.50;;;;;;;;;;5035380;28;20413;-77
2021/09/06 11:25:27;;;;;;;16.00;14.50;;;;;;;;;;5035290;28;20413;-76
2021/09/06 11:28:03;;;;;;;18.77;15.23;;;;;;;;;;5035477;28;20408;-77
2021/09/06 11:30:29;;;;;;;18.70;15.47;;;;;;;;;;5035225;28;20522;-80
2021/09/06 11:32:55;;;;;;;18.03;16.10;;;;;;;;;;5035227;28;20405;-75
2021/09/06 11:35:21;;;;;;;17.83;15.97;;;;;;;;;;5035118;28;20429;-77
2021/09/06 11:37:47;;;;;;;21.27;17.87;;;;;;;;;;5035458;28;20497;-76
2021/09/06 11:40:13;;;;;;;20.07;16.70;;;;;;;;;;5034763;28;20467;-80
2021/09/06 11:42:39;;;;;;;19.20;17.20;;;;;;;;;;5035244;28;20417;-77
2021/09/06 11:45:07;;;;;;;22.30;18.90;;;;;;;;;;5035169;28;20475;-77
2021/09/06 11:47:35;;;;;;;20.07;17.80;;;;;;;;;;5034817;28;20466;-76
2021/09/06 11:50:01;;;;;;;19.53;17.53;;;;;;;;;;5034622;28;21064;-79
2021/09/06 11:52:37;;;;;;;19.67;17.37;;;;;;;;;;5035135;28;20444;-75
2021/09/06 11:55:04;;;;;;;20.67;17.00;;;;;;;;;;5035109;28;20409;-77
2021/09/06 11:57:34;;;;;;;19.27;17.27;;;;;;;;;;5034844;28;20420;-78
2021/09/06 12:00:00;;;;;;;19.50;15.90;;;;;;;;;;5034225;28;20432;-78
2021/09/06 12:02:26;;;;;;;20.73;17.20;;;;;;;;;;5034847;28;20425;-76
2021/09/06 12:05:03;;;;;;;15.90;14.27;;;;;;;;;;5034852;28;20445;-76
2021/09/06 12:07:29;;;;;;;18.30;16.03;;;;;;;;;;5034561;28;20434;-76
2021/09/06 12:09:55;;;;;;;17.73;15.90;;;;;;;;;;5034127;28;20499;-77
2021/09/06 12:12:22;;;;;;;19.77;16.00;;;;;;;;;;5034627;28;20409;-78
2021/09/06 12:14:49;;;;;;;17.83;15.83;;;;;;;;;;5034471;28;20940;-77
2021/09/06 12:17:15;;;;;;;22.47;16.40;;;;;;;;;;5034415;28;20416;-79
2021/09/06 12:19:45;;;;;;;18.80;16.60;;;;;;;;;;5033836;28;21019;-78
2021/09/06 12:22:15;;;;;;;22.67;16.83;;;;;;;;;;5034239;28;20416;-77
2021/09/06 12:24:42;;;;;;;16.40;14.67;;;;;;;;;;5034381;28;20542;-77
2021/09/06 12:27:12;;;;;;;15.13;13.53;;;;;;;;;;5034230;28;20427;-77
2021/09/06 12:29:40;;;;;;;17.50;14.27;;;;;;;;;;5033598;28;20937;-75
2021/09/06 12:32:07;;;;;;;17.73;12.70;;;;;;;;;;5034216;28;20412;-78
2021/09/06 12:34:35;;;;;;;15.00;13.50;;;;;;;;;;5016352;28;20413;-77
2021/09/06 12:37:01;;;;;;;14.87;13.37;;;;;;;;;;5034107;28;20409;-75
2021/09/06 12:39:32;;;;;;;16.10;14.40;;;;;;;;;;5015813;28;20457;-76
2021/09/06 12:41:59;;;;;;;17.20;14.73;;;;;;;;;;5034059;28;20417;-78
2021/09/06 12:44:25;;;;;;;15.90;14.20;;;;;;;;;;5016210;28;20419;-77
2021/09/06 12:46:51;;;;;;;20.10;15.40;;;;;;;;;;5034046;28;20416;-73
2021/09/06 12:49:18;;;;;;;20.23;16.00;;;;;;;;;;5033320;28;20465;-74
2021/09/06 12:51:44;;;;;;;18.00;14.87;;;;;;;;;;5033945;28;20405;-76
2021/09/06 12:54:10;;;;;;;16.90;15.10;;;;;;;;;;5016405;28;20470;-75
2021/09/06 12:56:36;;;;;;;15.57;13.83;;;;;;;;;;5033575;28;20417;-75
2021/09/06 12:59:02;;;;;;;14.67;13.17;;;;;;;;;;5032383;28;20430;-74
2021/09/06 13:01:28;;;;;;;13.70;12.30;;;;;;;;;;5032611;28;20878;-75
2021/09/06 13:03:54;;;;;;;13.90;12.47;;;;;;;;;;5015468;28;20425;-76
2021/09/06 13:06:20;;;;;;;16.17;11.73;;;;;;;;;;5033119;28;20405;-74
2021/09/06 13:08:46;;;;;;;18.93;13.90;;;;;;;;;;5033033;28;20890;-78
2021/09/06 13:11:12;;;;;;;18.27;14.17;;;;;;;;;;5033461;28;20417;-76
2021/09/06 13:13:38;;;;;;;16.80;15.00;;;;;;;;;;5033340;28;20504;-75
2021/09/06 13:16:04;;;;;;;16.73;14.30;;;;;;;;;;5034090;28;20741;-75
2021/09/06 13:18:30;;;;;;;15.43;13.40;;;;;;;;;;5015558;28;20474;-75
2021/09/06 13:20:58;;;;;;;14.97;13.40;;;;;;;;;;5033069;28;20441;-75
2021/09/06 13:23:24;;;;;;;19.50;12.60;;;;;;;;;;5015540;28;20853;-75
2021/09/06 13:25:50;;;;;;;13.77;10.93;;;;;;;;;;5033145;28;20444;-77
2021/09/06 13:28:16;;;;;;;14.30;10.50;;;;;;;;;;5033009;28;20827;-75
2021/09/06 13:30:42;;;;;;;10.83;9.80;;;;;;;;;;5032685;28;20476;-77
2021/09/06 13:33:08;;;;;;;15.00;10.63;;;;;;;;;;5032771;28;20416;-74
2021/09/06 13:35:34;;;;;;;14.77;11.30;;;;;;;;;;5033276;28;20409;-75
2021/09/06 13:38:00;;;;;;;14.80;11.50;;;;;;;;;;5033294;28;20424;-76
2021/09/06 13:40:26;;;;;;;14.03;11.10;;;;;;;;;;5032522;28;20452;-75
2021/09/06 13:42:52;;;;;;;13.47;9.47;;;;;;;;;;5033129;28;20901;-76
2021/09/06 13:45:18;;;;;;;12.30;9.07;;;;;;;;;;5033078;28;20413;-75
2021/09/06 13:47:44;;;;;;;11.77;9.93;;;;;;;;;;5032941;28;20416;-78
2021/09/06 13:50:10;;;;;;;10.20;9.20;;;;;;;;;;5032559;28;20473;-76
2021/09/06 13:52:36;;;;;;;14.57;10.30;;;;;;;;;;5032967;28;20437;-75
2021/09/06 13:55:02;;;;;;;15.50;10.67;;;;;;;;;;5033116;28;20444;-76
2021/09/06 13:57:28;;;;;;;11.60;10.40;;;;;;;;;;5032979;28;20841;-76
2021/09/06 13:59:55;;;;;;;11.20;10.03;;;;;;;;;;5032786;28;20435;-76
2021/09/06 14:02:21;;;;;;;12.17;9.87;;;;;;;;;;5032812;28;20477;-77
2021/09/06 14:04:47;;;;;;;13.00;11.60;;;;;;;;;;5032892;28;20424;-76
2021/09/06 14:07:13;;;;;;;12.67;10.80;;;;;;;;;;5032921;28;20413;-75
2021/09/06 14:09:39;;;;;;;15.03;11.27;;;;;;;;;;5032752;28;20476;-76
2021/09/06 14:12:11;;;;;;;14.27;9.73;;;;;;;;;;5019051;28;20486;-76
2021/09/06 14:14:37;;;;;;;15.23;11.93;;;;;;;;;;5036601;28;20420;-76